createdAt,value
2023-04-06T00:00:50.106Z,45.97
2023-04-06T00:01:50.110Z,46.06
2023-04-06T00:02:50.170Z,46.65
2023-04-06T00:03:50.110Z,46.13
2023-04-06T00:04:50.085Z,45.31
2023-04-06T00:05:50.057Z,44.29
2023-04-06T00:06:50.049Z,44.90
2023-04-06T00:07:50.028Z,45.00
2023-04-06T00:08:50.017Z,44.81
2023-04-06T00:09:50.008Z,44.60
2023-04-06T00:10:50.002Z,42.56
2023-04-06T00:11:50.008Z,41.76
2023-04-06T00:12:49.977Z,41.40
2023-04-06T00:13:49.965Z,43.48
2023-04-06T00:14:49.957Z,44.60
2023-04-06T00:15:49.952Z,44.77
2023-04-06T00:16:50.033Z,45.52
2023-04-06T00:17:49.986Z,44.70
2023-04-06T00:18:49.916Z,44.40
2023-04-06T00:19:49.908Z,44.26
2023-04-06T00:20:49.897Z,48.65
2023-04-06T00:21:49.927Z,44.61
2023-04-06T00:22:49.889Z,43.30
2023-04-06T00:23:49.866Z,44.52
2023-04-06T00:24:49.856Z,50.35
2023-04-06T00:25:49.834Z,45.54
2023-04-06T00:26:49.884Z,44.95
2023-04-06T00:27:49.823Z,43.45
2023-04-06T00:28:49.813Z,43.40
2023-04-06T00:29:49.823Z,44.88
2023-04-06T00:30:49.787Z,44.51
2023-04-06T00:31:49.830Z,45.22
2023-04-06T00:32:49.787Z,45.34
2023-04-06T00:33:49.761Z,44.27
2023-04-06T00:34:49.761Z,43.56
2023-04-06T00:35:49.795Z,44.29
2023-04-06T00:36:49.766Z,43.06
2023-04-06T00:37:49.747Z,44.98
2023-04-06T00:38:49.705Z,44.40
2023-04-06T00:39:49.716Z,44.58
2023-04-06T00:40:49.686Z,44.77
2023-04-06T00:41:49.701Z,50.26
2023-04-06T00:42:49.676Z,46.29
2023-04-06T00:43:49.665Z,44.07
2023-04-06T00:44:49.657Z,43.87
2023-04-06T00:45:49.673Z,45.21
2023-04-06T00:46:49.726Z,45.79
2023-04-06T00:47:49.657Z,44.87
2023-04-06T00:48:49.616Z,45.58
2023-04-06T00:49:49.620Z,48.44
2023-04-06T00:50:49.606Z,45.52
2023-04-06T00:51:49.592Z,46.21
2023-04-06T00:52:49.568Z,46.09
2023-04-06T00:53:49.566Z,44.70
2023-04-06T00:54:49.555Z,46.08
2023-04-06T00:55:49.538Z,44.02
2023-04-06T00:56:49.532Z,44.59
2023-04-06T00:57:49.516Z,45.32
2023-04-06T00:58:49.598Z,44.82
2023-04-06T00:59:49.501Z,44.82
2023-04-06T01:00:49.486Z,45.05
2023-04-06T01:01:49.542Z,44.62
2023-04-06T01:02:49.507Z,45.31
2023-04-06T01:03:49.448Z,45.30
2023-04-06T01:04:49.446Z,45.07
2023-04-06T01:05:49.509Z,44.37
2023-04-06T01:06:49.443Z,45.25
2023-04-06T01:07:49.429Z,45.13
2023-04-06T01:08:49.405Z,44.88
2023-04-06T01:09:49.412Z,44.46
2023-04-06T01:10:49.374Z,44.71
2023-04-06T01:11:49.385Z,44.81
2023-04-06T01:12:49.378Z,45.85
2023-04-06T01:13:49.349Z,46.04
2023-04-06T01:14:49.346Z,45.60
2023-04-06T01:15:49.375Z,45.93
2023-04-06T01:16:49.331Z,47.01
2023-04-06T01:17:49.374Z,47.84
2023-04-06T01:18:49.312Z,46.28
2023-04-06T01:19:49.292Z,47.08
2023-04-06T01:20:49.277Z,44.93
2023-04-06T01:21:49.285Z,48.89
2023-04-06T01:22:49.255Z,45.27
2023-04-06T01:23:49.250Z,44.68
2023-04-06T01:24:49.239Z,45.30
2023-04-06T01:25:49.245Z,45.32
2023-04-06T01:26:49.251Z,45.85
2023-04-06T01:27:49.201Z,50.33
2023-04-06T01:28:49.203Z,46.68
2023-04-06T01:29:49.180Z,46.02
2023-04-06T01:30:49.183Z,47.28
2023-04-06T01:31:49.283Z,47.03
2023-04-06T01:32:49.168Z,48.44
2023-04-06T01:33:49.175Z,47.13
2023-04-06T01:34:49.124Z,46.52
2023-04-06T01:35:49.183Z,46.08
2023-04-06T01:36:49.119Z,45.32
2023-04-06T01:37:49.107Z,44.99
2023-04-06T01:38:49.092Z,45.41
2023-04-06T01:39:49.094Z,44.85
2023-04-06T01:40:49.081Z,44.01
2023-04-06T01:41:49.083Z,43.83
2023-04-06T01:42:49.050Z,43.87
2023-04-06T01:43:49.060Z,42.99
2023-04-06T01:44:49.036Z,44.05
2023-04-06T01:45:49.019Z,44.30
2023-04-06T01:46:49.062Z,48.03
2023-04-06T01:47:49.027Z,50.08
2023-04-06T01:48:48.992Z,45.40
2023-04-06T01:49:48.983Z,45.22
2023-04-06T01:50:48.973Z,46.03
2023-04-06T01:51:48.956Z,48.50
2023-04-06T01:52:48.961Z,46.41
2023-04-06T01:53:48.938Z,48.14
2023-04-06T01:54:48.951Z,51.61
2023-04-06T01:55:48.925Z,46.51
2023-04-06T01:56:48.917Z,46.01
2023-04-06T01:57:48.911Z,47.46
2023-04-06T01:58:48.936Z,49.16
2023-04-06T01:59:48.884Z,46.82
2023-04-06T02:00:48.885Z,47.23
2023-04-06T02:01:48.867Z,47.10
2023-04-06T02:02:48.865Z,51.06
2023-04-06T02:03:48.883Z,48.22
2023-04-06T02:04:48.833Z,47.18
2023-04-06T02:05:48.840Z,47.70
2023-04-06T02:06:48.816Z,47.18
2023-04-06T02:07:48.816Z,47.61
2023-04-06T02:08:48.789Z,48.98
2023-04-06T02:09:48.780Z,49.63
2023-04-06T02:10:48.815Z,48.37
2023-04-06T02:11:48.751Z,48.18
2023-04-06T02:12:48.757Z,46.91
2023-04-06T02:13:48.753Z,46.83
2023-04-06T02:14:48.730Z,45.67
2023-04-06T02:15:48.730Z,45.99
2023-04-06T02:16:48.776Z,47.21
2023-04-06T02:17:48.765Z,46.96
2023-04-06T02:18:48.699Z,47.29
2023-04-06T02:19:48.686Z,47.22
2023-04-06T02:20:48.665Z,52.79
2023-04-06T02:21:48.676Z,49.16
2023-04-06T02:22:48.658Z,46.88
2023-04-06T02:23:48.628Z,45.41
2023-04-06T02:24:48.639Z,46.60
2023-04-06T02:25:48.612Z,45.25
2023-04-06T02:26:48.618Z,45.85
2023-04-06T02:27:48.599Z,45.80
2023-04-06T02:28:48.593Z,48.27
2023-04-06T02:29:48.590Z,48.68
2023-04-06T02:30:48.560Z,45.38
2023-04-06T02:31:48.643Z,45.15
2023-04-06T02:32:48.586Z,49.24
2023-04-06T02:33:48.542Z,45.94
2023-04-06T02:34:48.519Z,50.37
2023-04-06T02:35:48.553Z,47.72
2023-04-06T02:36:48.492Z,47.51
2023-04-06T02:37:48.490Z,48.85
2023-04-06T02:38:48.471Z,51.60
2023-04-06T02:39:48.477Z,47.33
2023-04-06T02:40:48.450Z,47.01
2023-04-06T02:41:48.450Z,46.08
2023-04-06T02:42:48.439Z,44.93
2023-04-06T02:43:48.420Z,45.26
2023-04-06T02:44:48.427Z,45.87
2023-04-06T02:45:48.405Z,44.58
2023-04-06T02:46:48.400Z,44.50
2023-04-06T02:47:48.412Z,45.38
2023-04-06T02:48:48.365Z,45.66
2023-04-06T02:49:48.727Z,44.43
2023-04-06T02:50:48.355Z,46.33
2023-04-06T02:51:48.331Z,49.54
2023-04-06T02:52:48.338Z,47.93
2023-04-06T02:53:48.320Z,48.16
2023-04-06T02:54:48.309Z,47.00
2023-04-06T02:55:48.295Z,46.74
2023-04-06T02:56:48.284Z,47.31
2023-04-06T02:57:48.277Z,47.77
2023-04-06T02:58:48.443Z,46.16
2023-04-06T02:59:48.245Z,47.34
2023-04-06T03:00:48.246Z,46.96
2023-04-06T03:01:48.389Z,46.95
2023-04-06T03:02:48.300Z,47.29
2023-04-06T03:03:48.309Z,48.57
2023-04-06T03:04:48.218Z,47.27
2023-04-06T03:05:48.184Z,47.13
2023-04-06T03:06:48.188Z,49.97
2023-04-06T03:07:48.182Z,48.01
2023-04-06T03:08:48.157Z,47.55
2023-04-06T03:09:48.179Z,47.37
2023-04-06T03:10:48.136Z,49.31
2023-04-06T03:11:48.131Z,48.46
2023-04-06T03:12:48.149Z,49.46
2023-04-06T03:13:48.112Z,48.48
2023-04-06T03:14:48.105Z,51.20
2023-04-06T03:15:48.179Z,50.60
2023-04-06T03:16:48.073Z,51.14
2023-04-06T03:17:48.160Z,54.35
2023-04-06T03:18:48.057Z,51.47
2023-04-06T03:19:48.030Z,50.07
2023-04-06T03:20:48.034Z,47.37
2023-04-06T03:21:48.043Z,48.99
2023-04-06T03:22:48.024Z,51.30
2023-04-06T03:23:47.993Z,51.46
2023-04-06T03:24:47.986Z,52.56
2023-04-06T03:25:48.022Z,51.35
2023-04-06T03:26:47.964Z,47.88
2023-04-06T03:27:47.956Z,48.25
2023-04-06T03:28:47.942Z,50.94
2023-04-06T03:29:47.926Z,50.09
2023-04-06T03:30:47.919Z,50.05
2023-04-06T03:31:47.952Z,47.40
2023-04-06T03:32:47.933Z,47.73
2023-04-06T03:33:47.903Z,50.78
2023-04-06T03:34:47.882Z,48.92
2023-04-06T03:35:47.921Z,50.38
2023-04-06T03:36:51.677Z,48.07
2023-04-06T03:37:48.863Z,50.32
2023-04-06T03:38:47.835Z,52.70
2023-04-06T03:39:47.830Z,47.90
2023-04-06T03:40:47.834Z,53.77
2023-04-06T03:41:47.808Z,47.95
2023-04-06T03:42:47.879Z,49.30
2023-04-06T03:43:47.791Z,49.20
2023-04-06T03:44:47.775Z,50.75
2023-04-06T03:45:47.786Z,54.80
2023-04-06T03:46:47.794Z,53.66
2023-04-06T03:47:47.825Z,51.67
2023-04-06T03:48:47.736Z,55.62
2023-04-06T03:49:47.720Z,52.68
2023-04-06T03:50:47.721Z,54.18
2023-04-06T03:51:47.694Z,53.51
2023-04-06T03:52:47.707Z,52.90
2023-04-06T03:53:47.672Z,55.75
2023-04-06T03:54:47.668Z,53.68
2023-04-06T03:55:47.652Z,53.46
2023-04-06T03:56:47.645Z,53.52
2023-04-06T03:57:47.644Z,55.62
2023-04-06T03:58:47.625Z,55.65
2023-04-06T03:59:47.615Z,55.82
2023-04-06T04:00:47.601Z,57.23
2023-04-06T04:01:47.614Z,57.16
2023-04-06T04:02:47.688Z,57.18
2023-04-06T04:03:50.200Z,57.15
2023-04-06T04:04:47.586Z,56.18
2023-04-06T04:05:47.553Z,58.70
2023-04-06T04:06:47.535Z,56.99
2023-04-06T04:07:47.553Z,56.16
2023-04-06T04:08:47.516Z,55.67
2023-04-06T04:09:47.507Z,57.50
2023-04-06T04:10:47.531Z,55.86
2023-04-06T04:11:47.490Z,55.81
2023-04-06T04:12:47.492Z,57.21
2023-04-06T04:13:47.478Z,56.69
2023-04-06T04:14:47.467Z,55.51
2023-04-06T04:15:47.444Z,54.27
2023-04-06T04:16:47.493Z,56.41
2023-04-06T04:17:47.450Z,57.30
2023-04-06T04:18:47.417Z,56.44
2023-04-06T04:19:47.402Z,54.18
2023-04-06T04:20:47.420Z,55.99
2023-04-06T04:21:47.384Z,53.60
2023-04-06T04:22:47.382Z,56.53
2023-04-06T04:23:47.360Z,58.18
2023-04-06T04:24:47.364Z,57.13
2023-04-06T04:25:47.332Z,53.58
2023-04-06T04:26:47.349Z,53.33
2023-04-06T04:27:47.330Z,57.19
2023-04-06T04:28:47.318Z,55.28
2023-04-06T04:29:47.345Z,57.25
2023-04-06T04:30:47.292Z,56.37
2023-04-06T04:31:47.361Z,57.87
2023-04-06T04:32:47.327Z,57.78
2023-04-06T04:33:47.259Z,58.92
2023-04-06T04:34:47.255Z,55.85
2023-04-06T04:35:47.271Z,55.58
2023-04-06T04:36:47.234Z,55.09
2023-04-06T04:37:47.240Z,53.56
2023-04-06T04:38:47.221Z,53.71
2023-04-06T04:39:47.199Z,55.61
2023-04-06T04:40:47.244Z,55.30
2023-04-06T04:41:47.177Z,54.65
2023-04-06T04:42:47.205Z,53.24
2023-04-06T04:43:47.164Z,53.77
2023-04-06T04:44:47.157Z,53.50
2023-04-06T04:45:47.183Z,55.49
2023-04-06T04:46:47.134Z,56.71
2023-04-06T04:47:47.170Z,52.78
2023-04-06T04:48:47.113Z,56.16
2023-04-06T04:49:47.090Z,53.79
2023-04-06T04:50:47.083Z,57.05
2023-04-06T04:51:47.089Z,53.61
2023-04-06T04:52:47.080Z,55.76
2023-04-06T04:53:47.063Z,59.11
2023-04-06T04:54:47.054Z,53.98
2023-04-06T04:55:47.036Z,54.05
2023-04-06T04:56:47.023Z,53.88
2023-04-06T04:57:47.019Z,56.15
2023-04-06T04:58:47.018Z,55.28
2023-04-06T04:59:47.005Z,53.61
2023-04-06T05:00:46.985Z,52.39
2023-04-06T05:01:54.718Z,56.02
2023-04-06T05:02:48.109Z,54.30
2023-04-06T05:03:47.048Z,56.40
2023-04-06T05:04:46.947Z,52.11
2023-04-06T05:05:46.939Z,53.84
2023-04-06T05:06:46.922Z,54.29
2023-04-06T05:07:46.919Z,55.39
2023-04-06T05:08:46.997Z,53.94
2023-04-06T05:09:46.915Z,52.11
2023-04-06T05:10:46.878Z,55.14
2023-04-06T05:11:46.877Z,56.10
2023-04-06T05:12:46.860Z,55.46
2023-04-06T05:13:46.862Z,53.03
2023-04-06T05:14:46.845Z,56.72
2023-04-06T05:15:46.854Z,54.62
2023-04-06T05:16:46.817Z,54.44
2023-04-06T05:17:46.852Z,56.60
2023-04-06T05:18:46.812Z,57.68
2023-04-06T05:19:46.780Z,54.96
2023-04-06T05:20:46.777Z,55.70
2023-04-06T05:21:46.782Z,57.08
2023-04-06T05:22:46.761Z,57.60
2023-04-06T05:23:46.780Z,56.15
2023-04-06T05:24:46.741Z,54.62
2023-04-06T05:25:46.741Z,52.93
2023-04-06T05:26:46.720Z,54.40
2023-04-06T05:27:46.718Z,54.05
2023-04-06T05:28:46.707Z,55.20
2023-04-06T05:29:46.686Z,58.05
2023-04-06T05:30:46.677Z,58.86
2023-04-06T05:31:46.725Z,57.95
2023-04-06T05:32:46.693Z,54.99
2023-04-06T05:33:46.682Z,59.28
2023-04-06T05:34:46.632Z,56.63
2023-04-06T05:35:46.657Z,57.74
2023-04-06T05:36:46.621Z,55.83
2023-04-06T05:37:46.602Z,54.62
2023-04-06T05:38:46.606Z,54.33
2023-04-06T05:39:46.580Z,56.89
2023-04-06T05:40:46.573Z,53.29
2023-04-06T05:41:46.593Z,58.46
2023-04-06T05:42:46.546Z,55.66
2023-04-06T05:43:46.551Z,56.37
2023-04-06T05:44:46.526Z,53.68
2023-04-06T05:45:46.530Z,54.37
2023-04-06T05:46:46.592Z,56.23
2023-04-06T05:47:46.506Z,54.65
2023-04-06T05:48:46.496Z,57.82
2023-04-06T05:49:46.488Z,56.10
2023-04-06T05:50:46.450Z,56.58
2023-04-06T05:51:46.483Z,55.59
2023-04-06T05:52:46.441Z,58.04
2023-04-06T05:53:46.454Z,58.99
2023-04-06T05:54:46.449Z,58.53
2023-04-06T05:55:46.416Z,56.98
2023-04-06T05:56:46.417Z,53.92
2023-04-06T05:57:46.417Z,54.66
2023-04-06T05:58:46.408Z,52.86
2023-04-06T05:59:46.364Z,53.63
2023-04-06T06:00:46.378Z,54.88
2023-04-06T06:01:46.381Z,52.44
2023-04-06T06:02:46.376Z,50.17
2023-04-06T06:03:46.353Z,52.35
2023-04-06T06:04:46.380Z,53.76
2023-04-06T06:05:46.312Z,54.20
2023-04-06T06:06:46.290Z,51.89
2023-04-06T06:07:46.292Z,51.83
2023-04-06T06:08:46.272Z,53.62
2023-04-06T06:09:46.258Z,51.77
2023-04-06T06:10:46.242Z,50.85
2023-04-06T06:11:46.248Z,50.89
2023-04-06T06:12:46.221Z,50.24
2023-04-06T06:13:46.246Z,51.91
2023-04-06T06:14:46.189Z,52.99
2023-04-06T06:15:46.195Z,52.55
2023-04-06T06:16:46.236Z,55.35
2023-04-06T06:17:46.215Z,52.69
2023-04-06T06:18:46.162Z,50.48
2023-04-06T06:19:46.154Z,52.21
2023-04-06T06:20:46.135Z,51.91
2023-04-06T06:21:46.142Z,51.16
2023-04-06T06:22:46.167Z,51.93
2023-04-06T06:23:46.119Z,55.28
2023-04-06T06:24:46.083Z,54.08
2023-04-06T06:25:46.088Z,54.34
2023-04-06T06:26:46.095Z,51.14
2023-04-06T06:27:46.058Z,54.40
2023-04-06T06:28:46.063Z,51.95
2023-04-06T06:29:46.053Z,53.42
2023-04-06T06:30:46.027Z,54.31
2023-04-06T06:31:46.073Z,53.39
2023-04-06T06:32:46.033Z,54.56
2023-04-06T06:33:46.007Z,52.49
2023-04-06T06:34:45.989Z,56.38
2023-04-06T06:35:45.987Z,56.91
2023-04-06T06:36:48.124Z,53.87
2023-04-06T06:37:45.958Z,52.20
2023-04-06T06:38:45.960Z,52.58
2023-04-06T06:39:45.945Z,52.38
2023-04-06T06:40:45.922Z,54.04
2023-04-06T06:41:45.917Z,53.76
2023-04-06T06:42:45.919Z,53.32
2023-04-06T06:43:45.915Z,52.92
2023-04-06T06:44:45.877Z,50.23
2023-04-06T06:45:46.099Z,54.53
2023-04-06T06:46:45.877Z,55.68
2023-04-06T06:47:45.891Z,51.91
2023-04-06T06:48:45.847Z,51.40
2023-04-06T06:49:45.848Z,55.69
2023-04-06T06:50:45.885Z,53.22
2023-04-06T06:51:45.811Z,53.33
2023-04-06T06:52:45.793Z,53.16
2023-04-06T06:53:45.794Z,54.57
2023-04-06T06:54:45.769Z,51.11
2023-04-06T06:55:45.780Z,53.88
2023-04-06T06:56:45.758Z,50.78
2023-04-06T06:57:45.744Z,52.10
2023-04-06T06:58:45.761Z,51.33
2023-04-06T06:59:45.777Z,53.97
2023-04-06T07:00:45.775Z,54.80
2023-04-06T07:01:45.709Z,53.32
2023-04-06T07:02:45.717Z,54.06
2023-04-06T07:03:45.785Z,56.48
2023-04-06T07:04:45.719Z,53.61
2023-04-06T07:05:45.656Z,47.49
2023-04-06T07:06:45.645Z,49.42
2023-04-06T07:07:45.637Z,48.43
2023-04-06T07:08:46.674Z,52.85
2023-04-06T07:09:46.131Z,53.27
2023-04-06T07:10:46.101Z,53.59
2023-04-06T07:11:45.914Z,48.68
2023-04-06T07:12:48.424Z,48.76
2023-04-06T07:13:47.682Z,49.65
2023-04-06T08:48:22.455Z,49.50
2023-04-06T08:49:22.666Z,55.10
2023-04-06T09:00:18.515Z,49.95
2023-04-06T09:01:18.511Z,47.49
2023-04-06T09:02:18.598Z,50.09
2023-04-06T09:03:18.604Z,45.27
2023-04-06T09:04:19.691Z,48.72
2023-04-06T09:05:18.471Z,49.11
2023-04-06T09:06:18.445Z,55.61
2023-04-06T09:07:18.432Z,47.40
2023-04-06T09:08:18.451Z,48.53
2023-04-06T09:09:18.424Z,49.26
2023-04-06T09:10:18.410Z,46.72
2023-04-06T09:11:18.396Z,46.57
2023-04-06T09:12:18.380Z,47.93
2023-04-06T09:13:18.375Z,50.80
2023-04-06T09:14:18.834Z,49.16
2023-04-06T09:15:19.472Z,47.36
2023-04-06T09:26:18.083Z,44.60
2023-04-06T09:27:18.076Z,50.11
2023-04-06T09:28:18.056Z,49.45
2023-04-06T09:42:05.416Z,43.89
2023-04-06T09:43:05.377Z,43.83
2023-04-06T09:59:50.307Z,49.63
2023-04-06T10:00:53.009Z,52.14
2023-04-06T10:01:50.233Z,47.90
2023-04-06T10:02:50.338Z,45.67
2023-04-06T10:03:50.392Z,45.83
2023-04-06T10:04:50.220Z,52.15
2023-04-06T10:05:50.202Z,51.80
2023-04-06T10:06:50.181Z,50.16
2023-04-06T10:08:52.052Z,48.66
2023-04-06T10:09:50.155Z,47.73
2023-04-06T10:10:50.137Z,48.07
2023-04-06T10:11:50.432Z,49.16
2023-04-06T10:12:50.121Z,48.94
2023-04-06T10:13:50.101Z,52.32
2023-04-06T10:14:50.104Z,54.60
2023-04-06T10:15:50.086Z,51.30
2023-04-06T10:16:50.138Z,48.87
2023-04-06T10:17:50.103Z,53.69
2023-04-06T10:18:50.046Z,46.00
2023-04-06T10:19:50.056Z,48.76
2023-04-06T10:20:50.041Z,51.70
2023-04-06T10:21:50.011Z,50.52
2023-04-06T10:22:50.010Z,47.80
2023-04-06T10:23:50.004Z,49.91
2023-04-06T10:24:49.999Z,48.57
2023-04-06T10:25:49.969Z,51.93
2023-04-06T10:26:49.963Z,52.60
2023-04-06T10:27:49.948Z,57.54
2023-04-06T10:28:49.950Z,54.67
2023-04-06T10:29:49.987Z,52.69
2023-04-06T10:30:49.932Z,50.84
2023-04-06T10:31:49.947Z,47.78
2023-04-06T10:32:49.914Z,47.12
2023-04-06T10:33:49.892Z,51.36
2023-04-06T10:34:49.895Z,50.54
2023-04-06T10:35:49.903Z,48.16
2023-04-06T10:36:49.864Z,47.70
2023-04-06T10:37:49.851Z,48.85
2023-04-06T10:38:49.839Z,47.80
2023-04-06T10:39:49.827Z,52.91
2023-04-06T10:40:49.861Z,49.65
2023-04-06T10:41:49.809Z,51.95
2023-04-06T10:42:49.796Z,50.48
2023-04-06T10:43:49.843Z,50.91
2023-04-06T10:44:49.776Z,49.47
2023-04-06T10:45:49.825Z,52.58
2023-04-06T10:46:49.758Z,46.73
2023-04-06T10:47:49.761Z,52.27
2023-04-06T10:48:49.730Z,50.38
2023-04-06T10:49:49.719Z,49.89
2023-04-06T10:50:49.746Z,55.37
2023-04-06T10:51:49.696Z,52.70
2023-04-06T10:52:49.730Z,49.46
2023-04-06T10:53:49.734Z,51.73
2023-04-06T10:54:50.565Z,49.28
2023-04-06T10:55:49.671Z,50.79
2023-04-06T10:56:49.653Z,46.95
2023-04-06T10:57:49.640Z,43.77
2023-04-06T10:58:49.729Z,48.80
2023-04-06T10:59:49.612Z,54.09
2023-04-06T11:00:51.038Z,53.56
2023-04-06T11:01:49.653Z,47.53
2023-04-06T11:02:49.715Z,46.63
2023-04-06T11:03:49.622Z,48.57
2023-04-06T11:04:49.561Z,47.05
2023-04-06T11:05:49.578Z,48.94
2023-04-06T11:06:49.553Z,46.17
2023-04-06T11:07:49.527Z,53.14
2023-04-06T11:08:49.518Z,50.30
2023-04-06T11:10:04.557Z,44.88
2023-04-06T11:10:50.516Z,50.35
2023-04-06T11:11:49.581Z,51.53
2023-04-06T11:12:49.475Z,46.55
2023-04-06T11:13:49.474Z,53.77
2023-04-06T11:14:49.459Z,45.65
2023-04-06T11:15:49.439Z,49.40
2023-04-06T11:16:49.511Z,47.17
2023-04-06T11:17:49.431Z,48.42
2023-04-06T11:18:49.410Z,49.28
2023-04-06T11:19:49.395Z,49.64
2023-04-06T11:20:49.391Z,50.28
2023-04-06T11:21:49.473Z,49.20
2023-04-06T11:22:49.398Z,49.85
2023-04-06T11:23:49.358Z,51.64
2023-04-06T11:24:49.349Z,48.92
2023-04-06T11:25:49.692Z,50.59
2023-04-06T11:26:50.707Z,51.96
2023-04-06T11:27:49.368Z,55.11
2023-04-06T11:28:49.314Z,51.63
2023-04-06T11:29:49.304Z,53.18
2023-04-06T11:30:49.310Z,50.42
2023-04-06T11:31:49.296Z,54.73
2023-04-06T11:32:49.319Z,47.37
2023-04-06T11:33:49.267Z,48.47
2023-04-06T11:34:49.257Z,48.30
2023-04-06T11:35:49.278Z,50.10
2023-04-06T11:36:49.241Z,51.00
2023-04-06T11:37:49.231Z,48.47
2023-04-06T11:38:49.219Z,53.96
2023-04-06T11:39:49.234Z,49.72
2023-04-06T11:40:49.204Z,49.81
2023-04-06T11:41:49.231Z,54.56
2023-04-06T11:42:49.176Z,46.47
2023-04-06T11:43:49.208Z,51.52
2023-04-06T11:44:49.176Z,51.31
2023-04-06T11:45:50.351Z,42.55
2023-04-06T11:46:50.349Z,54.38
2023-04-06T11:47:50.330Z,52.65
2023-04-06T11:48:50.311Z,51.44
2023-04-06T11:49:50.261Z,48.96
2023-04-06T11:50:50.258Z,54.11
2023-04-06T11:51:50.311Z,43.98
2023-04-06T11:52:50.274Z,47.41
2023-04-06T11:53:50.263Z,51.33
2023-04-06T11:54:50.240Z,50.91
2023-04-06T11:55:50.263Z,48.39
2023-04-06T11:56:50.241Z,47.50
2023-04-06T11:57:51.204Z,54.85
2023-04-06T11:58:50.200Z,45.94
2023-04-06T11:59:50.198Z,49.71
2023-04-06T12:00:50.229Z,42.93
2023-04-06T12:01:50.278Z,43.52
2023-04-06T12:02:50.296Z,54.07
2023-04-06T12:03:50.434Z,46.60
2023-04-06T12:04:50.279Z,48.95
2023-04-06T12:05:50.144Z,51.65
2023-04-06T12:06:50.149Z,51.53
2023-04-06T12:07:50.142Z,53.18
2023-04-06T12:08:50.139Z,49.62
2023-04-06T12:09:50.113Z,49.37
2023-04-06T12:10:50.084Z,51.22
2023-04-06T12:11:50.179Z,51.64
2023-04-06T12:12:50.050Z,47.56
2023-04-06T12:13:50.052Z,54.46
2023-04-06T12:14:50.126Z,48.46
2023-04-06T12:15:52.121Z,52.90
2023-04-06T12:16:50.069Z,46.15
2023-04-06T12:17:50.051Z,46.54
2023-04-06T12:18:49.996Z,51.72
2023-04-06T12:19:49.988Z,49.75
2023-04-06T12:20:49.988Z,47.46
2023-04-06T12:21:49.996Z,50.89
2023-04-06T12:22:49.972Z,53.08
2023-04-06T12:23:49.968Z,45.05
2023-04-06T12:24:49.930Z,48.86
2023-04-06T12:25:49.945Z,48.26
2023-04-06T12:26:53.932Z,42.55
2023-04-06T12:27:51.936Z,46.87
2023-04-06T12:28:50.076Z,49.58
2023-04-06T12:29:50.039Z,49.38
2023-04-06T12:30:49.899Z,47.46
2023-04-06T12:31:50.088Z,49.75
2023-04-06T12:32:51.287Z,52.57
2023-04-06T12:33:50.851Z,46.95
2023-04-06T12:34:49.892Z,49.44
2023-04-06T12:35:49.829Z,47.36
2023-04-06T12:36:54.115Z,53.33
2023-04-06T12:37:49.932Z,47.58
2023-04-06T12:39:44.709Z,53.21
2023-04-06T12:39:49.763Z,44.99
2023-04-06T12:40:49.735Z,51.09
2023-04-06T12:41:49.833Z,48.26
2023-04-06T12:42:49.761Z,49.69
2023-04-06T12:43:49.721Z,48.35
2023-04-06T12:44:49.721Z,44.76
2023-04-06T12:45:50.704Z,53.33
2023-04-06T12:46:49.754Z,46.05
2023-04-06T12:47:49.853Z,45.60
2023-04-06T12:48:49.672Z,45.09
2023-04-06T12:49:49.651Z,47.95
2023-04-06T12:50:49.683Z,49.83
2023-04-06T12:51:49.813Z,45.40
2023-04-06T12:52:49.639Z,47.66
2023-04-06T12:53:49.624Z,52.92
2023-04-06T12:54:51.575Z,53.30
2023-04-06T12:55:50.706Z,49.52
2023-04-06T12:56:49.618Z,46.27
2023-04-06T12:57:49.773Z,43.22
2023-04-06T12:58:50.626Z,44.74
2023-04-06T12:59:49.666Z,49.13
2023-04-06T13:01:04.562Z,51.84
2023-04-06T13:01:49.736Z,50.18
2023-04-06T13:02:49.738Z,48.99
2023-04-06T13:03:49.596Z,51.41
2023-04-06T13:04:49.561Z,50.77
2023-04-06T13:05:49.526Z,50.04
2023-04-06T13:06:49.533Z,51.21
2023-04-06T13:07:49.499Z,47.69
2023-04-06T13:08:49.503Z,49.18
2023-04-06T13:09:49.580Z,51.80
2023-04-06T13:10:49.481Z,45.57
2023-04-06T13:11:49.505Z,49.23
2023-04-06T13:12:49.462Z,48.33
2023-04-06T13:13:49.443Z,52.24
2023-04-06T13:14:49.438Z,53.49
2023-04-06T13:15:49.415Z,51.65
2023-04-06T13:16:49.490Z,52.02
2023-04-06T13:17:49.418Z,51.66
2023-04-06T13:18:49.389Z,48.39
2023-04-06T13:19:49.414Z,47.54
2023-04-06T13:20:49.393Z,55.06
2023-04-06T13:21:49.396Z,48.33
2023-04-06T13:22:49.358Z,49.33
2023-04-06T13:23:49.364Z,45.67
2023-04-06T13:24:49.335Z,51.65
2023-04-06T13:25:49.326Z,46.42
2023-04-06T13:26:49.346Z,48.40
2023-04-06T13:27:49.320Z,49.28
2023-04-06T13:28:49.306Z,49.67
2023-04-06T13:29:49.283Z,53.19
2023-04-06T13:30:49.276Z,49.00
2023-04-06T13:31:49.312Z,48.33
2023-04-06T13:32:49.309Z,48.74
2023-04-06T13:33:49.252Z,49.64
2023-04-06T13:34:49.241Z,53.01
2023-04-06T13:35:49.252Z,48.70
2023-04-06T13:36:49.276Z,50.05
2023-04-06T13:37:49.213Z,52.19
2023-04-06T13:38:49.207Z,47.82
2023-04-06T13:39:49.198Z,51.15
2023-04-06T13:40:49.183Z,55.29
2023-04-06T13:41:49.187Z,52.71
2023-04-06T13:42:49.174Z,55.27
2023-04-06T13:43:49.159Z,54.28
2023-04-06T13:44:49.157Z,50.77
2023-04-06T13:45:49.243Z,56.36
2023-04-06T13:46:49.153Z,56.63
2023-04-06T13:47:49.175Z,55.46
2023-04-06T13:48:49.144Z,54.01
2023-04-06T13:49:49.105Z,55.63
2023-04-06T13:50:49.106Z,55.62
2023-04-06T13:51:49.102Z,56.32
2023-04-06T13:52:49.141Z,53.40
2023-04-06T13:53:49.101Z,47.34
2023-04-06T13:54:49.072Z,48.98
2023-04-06T13:55:49.046Z,57.34
2023-04-06T13:56:49.047Z,57.75
2023-04-06T13:57:49.049Z,55.33
2023-04-06T13:58:49.013Z,54.64
2023-04-06T13:59:48.997Z,53.81
2023-04-06T14:00:49.192Z,51.29
2023-04-06T14:01:49.005Z,51.37
2023-04-06T14:02:49.025Z,52.32
2023-04-06T14:03:49.634Z,50.11
2023-04-06T14:04:48.950Z,55.39
2023-04-06T14:05:48.968Z,54.14
2023-04-06T14:06:48.951Z,56.69
2023-04-06T14:07:48.904Z,59.63
2023-04-06T14:08:48.931Z,59.19
2023-04-06T14:09:48.897Z,61.97
2023-04-06T14:10:48.933Z,55.06
2023-04-06T14:11:48.892Z,50.12
2023-04-06T14:12:48.872Z,53.86
2023-04-06T14:13:48.846Z,51.73
2023-04-06T14:14:48.833Z,50.27
2023-04-06T14:15:48.831Z,50.07
2023-04-06T14:16:48.862Z,45.56
2023-04-06T14:17:48.925Z,54.68
2023-04-06T14:18:48.797Z,56.37
2023-04-06T14:19:48.795Z,54.91
2023-04-06T14:20:48.806Z,53.80
2023-04-06T14:21:48.771Z,57.57
2023-04-06T14:22:48.784Z,56.57
2023-04-06T14:23:48.752Z,53.79
2023-04-06T14:24:48.736Z,48.62
2023-04-06T14:25:48.742Z,52.91
2023-04-06T14:26:48.732Z,49.25
2023-04-06T14:27:48.741Z,53.64
2023-04-06T14:28:48.716Z,56.76
2023-04-06T14:29:48.694Z,53.94
2023-04-06T14:30:48.708Z,55.36
2023-04-06T14:31:48.675Z,51.61
2023-04-06T14:32:48.726Z,52.28
2023-04-06T14:33:48.721Z,51.11
2023-04-06T14:34:48.638Z,53.66
2023-04-06T14:35:48.647Z,48.76
2023-04-06T14:36:48.717Z,49.47
2023-04-06T14:37:48.653Z,49.25
2023-04-06T14:38:48.642Z,50.34
2023-04-06T14:39:48.594Z,44.32
2023-04-06T14:40:48.604Z,46.95
2023-04-06T14:41:49.821Z,50.01
2023-04-06T14:42:48.574Z,46.52
2023-04-06T14:43:48.779Z,53.88
2023-04-06T14:44:48.600Z,53.14
2023-04-06T14:45:48.549Z,49.08
2023-04-06T14:46:48.646Z,49.97
2023-04-06T14:47:48.595Z,46.03
2023-04-06T14:48:48.553Z,52.92
2023-04-06T14:49:48.500Z,54.79
2023-04-06T14:50:48.491Z,56.15
2023-04-06T14:51:48.469Z,43.87
2023-04-06T14:52:48.486Z,50.26
2023-04-06T14:53:48.456Z,46.22
2023-04-06T14:54:48.440Z,51.75
2023-04-06T14:55:48.452Z,51.58
2023-04-06T14:56:48.445Z,49.06
2023-04-06T14:57:48.471Z,49.47
2023-04-06T14:58:48.421Z,52.95
2023-04-06T14:59:48.427Z,51.28
2023-04-06T15:00:48.410Z,50.44
2023-04-06T15:01:48.476Z,50.02
2023-04-06T15:02:48.513Z,48.99
2023-04-06T15:03:48.670Z,47.95
2023-04-06T15:04:48.377Z,48.13
2023-04-06T15:05:48.382Z,52.59
2023-04-06T15:06:48.329Z,50.19
2023-04-06T15:07:48.359Z,49.42
2023-04-06T15:08:48.333Z,50.76
2023-04-06T15:09:48.337Z,44.94
2023-04-06T15:10:48.300Z,51.71
2023-04-06T15:11:48.442Z,51.67
2023-04-06T15:12:50.086Z,50.43
2023-04-06T15:13:48.449Z,53.43
2023-04-06T15:14:48.432Z,47.23
2023-04-06T15:15:48.352Z,50.12